Time;durP1;ratioP1;P1;durP2;ratioP2;P2;SDS_P1;SDS_P2;PMS_P1;PMS_P2;Temp;Humidity;BMP_temperature;BMP_pressure;BME280_temperature;BME280_humidity;BME280_pressure;Samples;Min_cycle;Max_cycle;Signal;HPM_P1;HPM_P2
2023/01/18 00:01:08;;;;;;;8.25;5.80;;;-1.80;99.90;;;;;;5000213;28;20034;-80
2023/01/18 00:03:35;;;;;;;8.60;5.65;;;-1.80;99.90;;;;;;4992436;28;20052;-79
2023/01/18 00:06:02;;;;;;;13.25;10.88;;;-1.80;99.90;;;;;;5015026;28;20105;-80
2023/01/18 00:08:29;;;;;;;8.57;5.25;;;-1.80;99.90;;;;;;5009751;28;20056;-79
2023/01/18 00:11:10;;;;;;;8.02;5.32;;;-1.80;99.90;;;;;;5019370;28;20080;-79
2023/01/18 00:13:36;;;;;;;10.73;5.32;;;-1.80;99.90;;;;;;5010252;28;20073;-79
2023/01/18 00:16:08;;;;;;;8.63;5.38;;;-1.90;99.90;;;;;;5015226;28;20034;-80
2023/01/18 00:18:34;;;;;;;13.45;12.15;;;-1.80;99.90;;;;;;5007664;28;20069;-80
2023/01/18 00:21:05;;;;;;;12.75;6.28;;;-1.90;99.90;;;;;;4997786;28;20060;-79
2023/01/18 00:23:31;;;;;;;10.63;5.20;;;-1.90;99.90;;;;;;5010487;28;20090;-80
2023/01/18 00:26:01;;;;;;;9.65;5.75;;;-1.90;99.90;;;;;;5001085;28;20119;-79
2023/01/18 00:28:27;;;;;;;7.32;4.70;;;-1.90;99.90;;;;;;5011501;28;20052;-79
2023/01/18 00:30:53;;;;;;;7.50;4.70;;;-1.90;99.90;;;;;;4999306;28;20482;-79
2023/01/18 00:33:19;;;;;;;7.25;4.97;;;-1.90;99.90;;;;;;4999447;28;20049;-79
2023/01/18 00:35:57;;;;;;;12.65;10.73;;;-1.90;99.90;;;;;;5007912;28;20395;-79
2023/01/18 00:38:23;;;;;;;9.38;5.43;;;-1.90;99.90;;;;;;4995673;28;20052;-79
2023/01/18 00:40:49;;;;;;;9.40;5.47;;;-1.90;99.90;;;;;;5009686;28;20033;-79
2023/01/18 00:45:58;;;;;;;7.13;5.18;;;-2.00;99.90;;;;;;5026869;28;20053;-79
2023/01/18 00:48:24;;;;;;;10.18;6.07;;;-2.00;99.90;;;;;;5009776;28;20037;-79
2023/01/18 00:50:50;;;;;;;7.93;5.18;;;-2.00;99.90;;;;;;5007345;28;20044;-80
2023/01/18 00:53:15;;;;;;;9.13;5.32;;;-2.00;99.90;;;;;;5015609;28;20451;-80
2023/01/18 00:55:41;;;;;;;10.73;5.57;;;-2.00;99.90;;;;;;5020385;28;20081;-79
2023/01/18 00:58:06;;;;;;;7.32;4.93;;;-2.00;99.90;;;;;;5027093;28;20499;-79
2023/01/18 01:00:32;;;;;;;13.15;10.85;;;-2.00;99.90;;;;;;5003404;28;20033;-79
2023/01/18 01:02:58;;;;;;;6.97;5.03;;;-2.00;99.90;;;;;;5005586;28;20044;-79
2023/01/18 01:08:15;;;;;;;7.40;5.32;;;-2.10;99.90;;;;;;4999334;28;20045;-79
2023/01/18 01:10:43;;;;;;;10.68;5.90;;;-2.10;99.90;;;;;;4995802;28;20041;-79
2023/01/18 01:26:49;;;;;;;9.50;5.22;;;-2.20;99.90;;;;;;5003447;28;20042;-79
2023/01/18 01:29:15;;;;;;;9.60;6.00;;;-2.20;99.90;;;;;;5001142;28;20038;-79
2023/01/18 01:31:41;;;;;;;9.93;5.63;;;-2.20;99.90;;;;;;4989619;28;20046;-79
2023/01/18 01:34:07;;;;;;;8.50;5.30;;;-2.20;99.90;;;;;;4983649;28;20052;-79
2023/01/18 01:36:33;;;;;;;11.77;5.65;;;-2.20;99.90;;;;;;4998632;28;20034;-79
2023/01/18 01:38:58;;;;;;;8.45;6.05;;;-2.20;99.90;;;;;;5000716;28;20038;-79
2023/01/18 01:41:30;;;;;;;8.93;6.03;;;-2.20;99.90;;;;;;5013811;28;20033;-79
2023/01/18 01:44:19;;;;;;;12.77;6.15;;;-2.20;99.90;;;;;;5001243;28;20087;-79
2023/01/18 01:46:49;;;;;;;7.75;5.45;;;-2.30;99.90;;;;;;4987187;28;20128;-79
2023/01/18 01:49:17;;;;;;;10.00;5.85;;;-2.30;99.90;;;;;;4998397;28;20439;-79
2023/01/18 01:51:45;;;;;;;10.85;6.57;;;-2.30;99.90;;;;;;4986408;28;20034;-79
2023/01/18 01:54:30;;;;;;;11.68;6.03;;;-2.30;99.90;;;;;;4983121;28;20041;-79
2023/01/18 01:57:04;;;;;;;8.40;5.80;;;-2.30;99.90;;;;;;5013611;28;20062;-79
2023/01/18 01:59:32;;;;;;;9.93;6.40;;;-2.30;99.90;;;;;;4987622;28;20123;-79
2023/01/18 02:01:58;;;;;;;9.68;6.80;;;-2.30;99.90;;;;;;4987113;28;20044;-79
2023/01/18 02:04:24;;;;;;;7.97;5.38;;;-2.20;99.90;;;;;;4987615;28;20084;-79
2023/01/18 02:06:49;;;;;;;11.43;6.75;;;-2.30;99.90;;;;;;5001012;28;20041;-79
2023/01/18 02:09:15;;;;;;;7.63;5.80;;;-2.30;99.90;;;;;;4985815;28;20046;-79
2023/01/18 02:11:42;;;;;;;15.27;13.57;;;-2.30;99.90;;;;;;4985887;28;20049;-79
2023/01/18 02:14:11;;;;;;;10.30;5.82;;;-2.30;99.90;;;;;;4983397;28;20407;-79
2023/01/18 02:16:49;;;;;;;8.88;5.50;;;-2.30;99.90;;;;;;5008768;28;20120;-79
2023/01/18 02:19:24;;;;;;;9.35;5.63;;;-2.30;99.90;;;;;;5009933;28;20058;-79
2023/01/18 02:22:13;;;;;;;11.20;6.55;;;-2.30;99.90;;;;;;5026878;28;20498;-79
2023/01/18 02:24:59;;;;;;;8.77;6.20;;;-2.30;99.90;;;;;;4996055;28;20110;-79
2023/01/18 02:27:42;;;;;;;9.75;6.25;;;-2.30;99.90;;;;;;5002919;28;20048;-79
2023/01/18 02:30:13;;;;;;;9.32;6.28;;;-2.40;99.90;;;;;;5005030;28;20408;-79
2023/01/18 02:33:02;;;;;;;8.88;5.78;;;-2.40;99.90;;;;;;5028909;28;20060;-79
2023/01/18 02:35:33;;;;;;;10.95;6.28;;;-2.40;99.90;;;;;;5022767;28;20097;-79
2023/01/18 02:38:08;;;;;;;13.07;6.28;;;-2.40;99.90;;;;;;5006252;28;20072;-79
2023/01/18 02:41:04;;;;;;;10.50;5.85;;;-2.40;99.90;;;;;;5012643;28;20084;-79
2023/01/18 02:46:29;;;;;;;10.18;5.93;;;-2.50;99.90;;;;;;5027989;28;20130;-79
2023/01/18 02:48:56;;;;;;;10.25;5.78;;;-2.50;99.90;;;;;;5013669;28;20085;-79
2023/01/18 02:51:23;;;;;;;7.68;5.13;;;-2.50;99.90;;;;;;5013827;28;20125;-79
2023/01/18 02:53:49;;;;;;;8.98;4.93;;;-2.50;99.90;;;;;;5002414;28;20484;-79
2023/01/18 02:56:26;;;;;;;10.20;6.10;;;-2.50;99.90;;;;;;5023052;28;20325;-79
2023/01/18 02:59:14;;;;;;;8.75;4.78;;;-2.50;99.90;;;;;;5006125;28;20060;-79
2023/01/18 03:01:57;;;;;;;7.65;4.97;;;-2.60;99.90;;;;;;5013859;28;20049;-79
2023/01/18 03:04:31;;;;;;;8.98;5.35;;;-2.50;99.90;;;;;;5001057;28;20041;-79
2023/01/18 03:07:09;;;;;;;11.30;5.47;;;-2.50;99.90;;;;;;5031624;28;20053;-79
2023/01/18 03:09:35;;;;;;;9.52;5.30;;;-2.50;99.90;;;;;;5001094;28;20135;-79
2023/01/18 03:12:10;;;;;;;8.45;5.30;;;-2.50;99.90;;;;;;5001144;28;20044;-79
2023/01/18 03:14:55;;;;;;;12.63;5.85;;;-2.50;99.90;;;;;;4998787;28;20048;-79
2023/01/18 03:17:35;;;;;;;9.80;5.88;;;-2.50;99.90;;;;;;4997862;28;20045;-79
2023/01/18 03:20:07;;;;;;;7.85;5.80;;;-2.50;99.90;;;;;;5025901;28;20042;-79
2023/01/18 03:25:46;;;;;;;11.32;6.25;;;-2.50;99.90;;;;;;5012439;28;20146;-80
2023/01/18 03:33:58;;;;;;;10.25;6.25;;;-2.50;99.90;;;;;;5016468;28;20048;-79
2023/01/18 03:36:26;;;;;;;;;;;-2.40;99.90;;;;;;5008910;28;20049;-79
2023/01/18 03:39:05;;;;;;;11.85;5.97;;;-2.50;99.90;;;;;;5015003;28;19925;-79
2023/01/18 03:41:35;;;;;;;13.60;6.38;;;-2.50;99.90;;;;;;5007474;28;20034;-79
2023/01/18 03:44:09;;;;;;;9.73;6.80;;;-2.50;99.90;;;;;;5001822;28;20038;-79
2023/01/18 03:46:37;;;;;;;13.23;6.07;;;-2.60;99.90;;;;;;5007449;28;20042;-79
2023/01/18 03:49:03;;;;;;;10.15;6.43;;;-2.60;99.90;;;;;;5012912;28;20046;-79
2023/01/18 03:51:41;;;;;;;9.20;6.28;;;-2.60;99.90;;;;;;5029520;28;20066;-79
2023/01/18 03:54:16;;;;;;;7.63;6.05;;;-2.60;99.90;;;;;;5024113;28;20049;-79
2023/01/18 03:56:55;;;;;;;11.52;5.97;;;-2.60;99.90;;;;;;5008896;28;20038;-79
2023/01/18 03:59:20;;;;;;;12.15;7.18;;;-2.60;99.90;;;;;;5030036;28;20549;-80
2023/01/18 04:01:47;;;;;;;10.85;7.18;;;-2.60;99.90;;;;;;5014663;28;20034;-80
2023/01/18 04:04:13;;;;;;;13.07;6.13;;;-2.60;99.90;;;;;;5022114;28;20034;-80
2023/01/18 04:06:39;;;;;;;9.88;6.53;;;-2.60;99.90;;;;;;5028587;28;20044;-79
2023/01/18 04:09:06;;;;;;;10.48;6.63;;;-2.50;99.90;;;;;;5010510;28;20499;-80
2023/01/18 04:11:32;;;;;;;8.27;6.22;;;-2.50;99.90;;;;;;5004126;28;20041;-80
2023/01/18 04:13:58;;;;;;;9.82;6.78;;;-2.50;99.90;;;;;;4996472;28;20069;-80
2023/01/18 04:16:23;;;;;;;10.95;7.22;;;-2.60;99.90;;;;;;4991417;28;20567;-80
2023/01/18 04:18:50;;;;;;;10.10;6.55;;;-2.60;99.90;;;;;;4984911;28;20045;-80
2023/01/18 04:21:15;;;;;;;10.48;6.90;;;-2.50;99.90;;;;;;4984861;28;20175;-80
2023/01/18 04:23:41;;;;;;;18.67;14.77;;;-2.50;99.90;;;;;;5029874;23;20083;-79
2023/01/18 04:26:07;;;;;;;8.57;6.45;;;-2.50;99.90;;;;;;5054824;28;20091;-79
2023/01/18 04:28:33;;;;;;;11.77;7.50;;;-2.60;99.90;;;;;;5058870;28;20080;-79
2023/01/18 04:30:59;;;;;;;8.68;5.47;;;-2.60;99.90;;;;;;5039831;28;20036;-79
2023/01/18 04:33:25;;;;;;;10.35;6.78;;;-2.60;99.90;;;;;;5050390;28;20548;-79
2023/01/18 04:35:53;;;;;;;11.90;7.50;;;-2.50;99.90;;;;;;5022694;28;20029;-79
2023/01/18 04:38:18;;;;;;;13.40;7.13;;;-2.60;99.90;;;;;;5022957;28;20037;-79
2023/01/18 04:40:44;;;;;;;13.77;6.72;;;-2.50;99.90;;;;;;5040190;28;20052;-79
2023/01/18 04:43:09;;;;;;;17.70;6.78;;;-2.50;99.90;;;;;;5021625;28;20045;-79
2023/01/18 04:45:35;;;;;;;11.05;6.57;;;-2.50;99.90;;;;;;5022692;28;20041;-79
2023/01/18 04:48:01;;;;;;;9.23;6.88;;;-2.50;99.90;;;;;;5048413;28;20067;-79
2023/01/18 04:50:26;;;;;;;12.40;6.90;;;-2.50;99.90;;;;;;5040336;28;20047;-79
2023/01/18 04:52:52;;;;;;;12.55;7.20;;;-2.50;99.90;;;;;;5021230;28;20047;-79
2023/01/18 04:55:17;;;;;;;13.00;6.82;;;-2.40;99.90;;;;;;5040385;28;20076;-79
2023/01/18 04:57:44;;;;;;;10.10;6.70;;;-2.40;99.90;;;;;;5040916;28;20030;-80
2023/01/18 05:00:16;;;;;;;10.02;6.65;;;-2.40;99.90;;;;;;5040976;28;20045;-80
2023/01/18 05:02:41;;;;;;;11.32;7.50;;;-2.40;99.90;;;;;;5040212;28;20041;-80
2023/01/18 05:05:07;;;;;;;13.70;7.20;;;-2.40;99.90;;;;;;5023245;28;20420;-80
2023/01/18 05:07:33;;;;;;;11.77;7.38;;;-2.40;99.90;;;;;;5039840;28;20056;-79
2023/01/18 05:09:59;;;;;;;15.60;7.38;;;-2.40;99.90;;;;;;5041222;28;20044;-79
2023/01/18 05:12:26;;;;;;;11.13;7.18;;;-2.40;99.90;;;;;;5040906;28;20475;-79
2023/01/18 05:14:51;;;;;;;12.80;7.28;;;-2.40;99.90;;;;;;5022383;28;20037;-79
2023/01/18 05:17:17;;;;;;;10.70;7.03;;;-2.40;99.90;;;;;;5025121;28;20114;-79
2023/01/18 05:19:42;;;;;;;11.30;7.30;;;-2.40;99.90;;;;;;5025297;28;20041;-79
2023/01/18 05:22:08;;;;;;;13.00;7.53;;;-2.40;99.90;;;;;;5042507;28;20063;-79
2023/01/18 05:24:34;;;;;;;12.77;7.25;;;-2.40;99.90;;;;;;5018868;28;20037;-79
2023/01/18 05:26:59;;;;;;;13.13;7.50;;;-2.40;99.90;;;;;;5038710;28;20395;-80
2023/01/18 05:29:25;;;;;;;13.98;7.18;;;-2.50;99.90;;;;;;5055821;28;20037;-79
2023/01/18 05:31:51;;;;;;;10.93;7.00;;;-2.50;99.90;;;;;;5006324;28;20033;-79
2023/01/18 05:34:17;;;;;;;14.23;7.85;;;-2.50;99.90;;;;;;5038711;28;20037;-79
2023/01/18 05:36:43;;;;;;;11.88;7.35;;;-2.50;99.90;;;;;;5020497;28;20441;-79
2023/01/18 05:39:08;;;;;;;14.10;8.52;;;-2.50;99.90;;;;;;5042050;28;20045;-79
2023/01/18 05:41:34;;;;;;;13.43;7.70;;;-2.50;99.90;;;;;;5027573;28;20033;-79
2023/01/18 05:44:00;;;;;;;14.18;7.95;;;-2.50;99.90;;;;;;5024997;28;20036;-79
2023/01/18 05:46:25;;;;;;;11.65;7.40;;;-2.50;99.90;;;;;;5044101;28;20032;-79
2023/01/18 05:48:56;;;;;;;12.63;8.38;;;-2.40;99.90;;;;;;5050960;28;20041;-79
2023/01/18 05:51:21;;;;;;;13.23;8.88;;;-2.50;99.90;;;;;;5036408;28;20033;-79
2023/01/18 05:53:47;;;;;;;12.23;7.57;;;-2.40;99.90;;;;;;5024346;28;20041;-79
2023/01/18 05:56:12;;;;;;;16.05;7.75;;;-2.40;99.90;;;;;;5034392;28;20510;-79
2023/01/18 05:58:38;;;;;;;12.85;8.10;;;-2.50;99.90;;;;;;5041850;28;20075;-79
2023/01/18 06:01:04;;;;;;;12.02;8.35;;;-2.50;99.90;;;;;;5042306;28;20507;-79
2023/01/18 06:03:29;;;;;;;21.48;18.50;;;-2.50;99.90;;;;;;5043924;28;20518;-79
2023/01/18 06:05:56;;;;;;;12.80;8.73;;;-2.50;99.90;;;;;;5039048;28;20104;-79
2023/01/18 06:08:22;;;;;;;13.38;7.90;;;-2.60;99.90;;;;;;5058453;28;20041;-79
2023/01/18 06:10:52;;;;;;;11.23;6.68;;;-2.60;99.90;;;;;;5042086;28;20048;-79
2023/01/18 06:13:18;;;;;;;12.90;8.35;;;-2.60;99.90;;;;;;5044536;28;20056;-79
2023/01/18 06:15:45;;;;;;;15.05;7.45;;;-2.50;99.90;;;;;;5043262;28;20037;-79
2023/01/18 06:18:11;;;;;;;12.23;7.38;;;-2.50;99.90;;;;;;5045050;28;20044;-79
2023/01/18 06:20:37;;;;;;;13.63;7.80;;;-2.60;99.90;;;;;;5046685;28;20041;-79
2023/01/18 06:23:02;;;;;;;15.90;8.55;;;-2.60;99.90;;;;;;5052093;28;20037;-79
2023/01/18 06:25:28;;;;;;;14.93;8.52;;;-2.60;99.90;;;;;;5025251;28;20072;-79
2023/01/18 06:27:53;;;;;;;14.02;8.32;;;-2.60;99.90;;;;;;5040098;28;20585;-79
2023/01/18 06:30:19;;;;;;;11.55;7.82;;;-2.60;99.90;;;;;;5040212;28;20041;-79
2023/01/18 06:32:47;;;;;;;12.95;8.32;;;-2.60;99.90;;;;;;5022079;28;20094;-79
2023/01/18 06:35:13;;;;;;;13.23;7.88;;;-2.60;99.90;;;;;;5051160;28;20041;-79
2023/01/18 06:37:38;;;;;;;15.65;7.18;;;-2.60;99.90;;;;;;5040563;28;20040;-79
2023/01/18 06:40:04;;;;;;;15.07;7.85;;;-2.60;99.90;;;;;;5054502;28;20041;-79
2023/01/18 06:42:30;;;;;;;17.02;9.32;;;-2.60;99.90;;;;;;5032944;28;20554;-79
2023/01/18 06:44:56;;;;;;;17.70;7.53;;;-2.60;99.90;;;;;;5035753;28;20126;-79
2023/01/18 06:47:22;;;;;;;14.02;7.55;;;-2.60;99.90;;;;;;5019325;28;20040;-79
2023/01/18 06:49:47;;;;;;;11.38;7.03;;;-2.70;99.90;;;;;;5019532;28;20045;-79
2023/01/18 06:52:14;;;;;;;11.15;7.30;;;-2.70;99.90;;;;;;5031824;28;20060;-79
2023/01/18 06:54:40;;;;;;;13.10;8.05;;;-2.70;99.90;;;;;;5018848;28;20041;-79
2023/01/18 06:57:05;;;;;;;12.23;7.63;;;-2.60;99.90;;;;;;5018298;28;20063;-79
2023/01/18 06:59:31;;;;;;;13.02;7.40;;;-2.60;99.90;;;;;;5020551;28;20590;-79
2023/01/18 07:01:57;;;;;;;12.95;7.13;;;-2.60;99.90;;;;;;5025729;28;20090;-79
2023/01/18 07:04:22;;;;;;;12.35;7.28;;;-2.60;99.90;;;;;;5047584;28;20477;-79
2023/01/18 07:06:48;;;;;;;12.82;6.82;;;-2.50;99.90;;;;;;5020184;28;20124;-79
2023/01/18 07:09:13;;;;;;;13.77;7.30;;;-2.50;99.90;;;;;;5019515;28;20484;-79
2023/01/18 07:11:42;;;;;;;21.83;17.10;;;-2.50;99.90;;;;;;5022263;28;20041;-79
2023/01/18 07:14:10;;;;;;;15.65;8.32;;;-2.50;99.90;;;;;;5018186;28;20539;-79
2023/01/18 07:16:36;;;;;;;12.38;7.60;;;-2.50;99.90;;;;;;5022646;28;20044;-77
2023/01/18 07:19:02;;;;;;;15.45;7.35;;;-2.50;99.90;;;;;;5043357;28;20144;-76
2023/01/18 07:21:29;;;;;;;14.32;8.00;;;-2.40;99.90;;;;;;5033906;28;20037;-75
2023/01/18 07:23:56;;;;;;;14.57;7.57;;;-2.50;99.90;;;;;;5035949;28;20068;-76
2023/01/18 07:26:22;;;;;;;15.57;7.78;;;-2.50;99.90;;;;;;5019882;28;20388;-75
2023/01/18 07:28:48;;;;;;;9.43;6.55;;;-2.50;99.90;;;;;;5034810;28;20051;-75
2023/01/18 07:31:15;;;;;;;12.93;6.80;;;-2.40;99.90;;;;;;5012724;28;20044;-75
2023/01/18 07:33:42;;;;;;;12.10;5.97;;;-2.40;99.90;;;;;;5032827;28;20047;-75
2023/01/18 07:36:11;;;;;;;14.77;6.22;;;-2.40;99.90;;;;;;5033622;28;20407;-77
2023/01/18 07:38:37;;;;;;;20.42;14.38;;;-2.30;99.90;;;;;;5015277;28;20183;-77
2023/01/18 07:41:14;;;;;;;14.35;6.80;;;-2.20;99.90;;;;;;5017659;28;20523;-77
2023/01/18 07:43:42;;;;;;;11.00;6.47;;;-2.10;99.90;;;;;;5035278;28;20037;-76
2023/01/18 07:46:11;;;;;;;10.38;6.15;;;-2.00;99.90;;;;;;5017838;28;20445;-77
2023/01/18 07:48:37;;;;;;;14.50;6.65;;;-1.90;99.90;;;;;;5021487;28;20037;-76
2023/01/18 07:51:05;;;;;;;14.25;7.38;;;-1.90;99.90;;;;;;5027847;28;20106;-76
2023/01/18 07:53:32;;;;;;;10.25;6.90;;;-1.80;99.90;;;;;;5027353;28;20063;-77
2023/01/18 07:56:07;;;;;;;8.80;5.68;;;-1.80;99.90;;;;;;5044281;28;20047;-76
2023/01/18 07:58:34;;;;;;;12.75;7.00;;;-1.80;99.90;;;;;;5034231;28;20062;-76
2023/01/18 08:01:08;;;;;;;11.40;7.60;;;-1.70;99.90;;;;;;5017364;28;20507;-76
2023/01/18 08:03:35;;;;;;;10.57;7.22;;;-1.70;99.90;;;;;;5035357;28;20033;-76
2023/01/18 08:06:03;;;;;;;11.07;7.10;;;-1.70;99.90;;;;;;5034881;28;20048;-76
2023/01/18 08:08:29;;;;;;;11.68;7.65;;;-1.80;99.90;;;;;;5043239;28;20048;-76
2023/01/18 08:10:56;;;;;;;11.55;7.97;;;-1.80;99.90;;;;;;5049298;28;20041;-76
2023/01/18 08:13:23;;;;;;;11.18;7.82;;;-1.80;99.90;;;;;;5035256;28;20127;-76
2023/01/18 08:15:49;;;;;;;16.70;14.18;;;-1.80;99.90;;;;;;5031406;28;20041;-76
2023/01/18 08:18:15;;;;;;;12.05;7.85;;;-1.80;99.90;;;;;;5025709;28;20124;-76
2023/01/18 08:20:47;;;;;;;12.65;8.30;;;-1.80;99.90;;;;;;5035334;28;20116;-77
2023/01/18 08:23:14;;;;;;;13.02;7.78;;;-1.80;99.90;;;;;;5033003;28;20039;-77
2023/01/18 08:25:40;;;;;;;11.65;7.55;;;-1.90;99.90;;;;;;5035490;28;20041;-76
2023/01/18 08:28:06;;;;;;;10.73;7.88;;;-1.90;99.90;;;;;;5033942;28;20048;-76
2023/01/18 08:30:41;;;;;;;15.85;8.13;;;-1.90;99.90;;;;;;5034736;28;20033;-76
2023/01/18 08:33:07;;;;;;;14.70;8.73;;;-1.90;99.90;;;;;;5034768;28;20040;-76
2023/01/18 08:35:40;;;;;;;12.68;8.02;;;-1.90;99.90;;;;;;5018543;28;20116;-76
2023/01/18 08:38:05;;;;;;;12.02;7.40;;;-1.90;99.90;;;;;;5032011;28;20112;-77
2023/01/18 08:40:31;;;;;;;12.90;7.90;;;-1.90;99.90;;;;;;5032217;28;20108;-76
2023/01/18 08:42:58;;;;;;;14.32;8.20;;;-1.90;99.90;;;;;;5034531;28;20041;-77
2023/01/18 08:45:25;;;;;;;17.83;15.98;;;-1.90;99.90;;;;;;5034960;28;20514;-76
2023/01/18 08:47:59;;;;;;;10.77;7.68;;;-1.90;99.90;;;;;;5033504;28;20052;-76
2023/01/18 08:50:26;;;;;;;15.88;7.88;;;-1.80;99.90;;;;;;5013848;28;20036;-77
2023/01/18 08:52:52;;;;;;;10.27;7.22;;;-1.80;99.90;;;;;;5032807;28;20036;-77
2023/01/18 08:55:19;;;;;;;10.95;7.70;;;-1.80;99.90;;;;;;5034762;28;20033;-78
2023/01/18 08:57:45;;;;;;;15.45;8.27;;;-1.70;99.90;;;;;;5020358;28;20380;-77
2023/01/18 09:00:11;;;;;;;19.38;16.88;;;-1.70;99.90;;;;;;5013462;28;20047;-76
2023/01/18 09:02:37;;;;;;;19.33;17.33;;;-1.60;99.90;;;;;;5034005;28;20045;-76
2023/01/18 09:05:03;;;;;;;16.23;8.02;;;-1.60;99.90;;;;;;5034528;28;20064;-77
2023/01/18 09:07:28;;;;;;;13.38;7.53;;;-1.60;99.90;;;;;;5017684;28;20045;-76
2023/01/18 09:09:54;;;;;;;15.60;8.15;;;-1.50;99.90;;;;;;5034141;28;20605;-76
2023/01/18 09:12:20;;;;;;;15.25;9.20;;;-1.50;99.90;;;;;;5037443;28;20041;-76
2023/01/18 09:14:45;;;;;;;15.23;8.60;;;-1.40;99.90;;;;;;5042477;28;20033;-76
2023/01/18 09:17:11;;;;;;;20.30;18.17;;;-1.40;99.90;;;;;;5050428;28;20487;-76
2023/01/18 09:19:37;;;;;;;13.02;8.73;;;-1.30;99.90;;;;;;5033124;28;20045;-76
2023/01/18 09:22:02;;;;;;;20.42;18.33;;;-1.30;99.90;;;;;;5042799;28;20074;-76
2023/01/18 09:24:28;;;;;;;14.15;8.70;;;-1.30;99.90;;;;;;5044035;28;20045;-76
2023/01/18 09:26:54;;;;;;;19.33;17.38;;;-1.20;99.90;;;;;;5050450;28;20040;-76
2023/01/18 09:29:20;;;;;;;19.65;17.65;;;-1.20;99.90;;;;;;5050494;28;20037;-76
2023/01/18 09:31:46;;;;;;;15.38;8.88;;;-1.20;99.90;;;;;;5041212;28;20450;-76
2023/01/18 09:34:12;;;;;;;12.52;8.38;;;-1.20;99.90;;;;;;5050033;28;20123;-76
2023/01/18 09:36:38;;;;;;;18.75;16.48;;;-1.10;99.90;;;;;;5028395;28;20136;-76
2023/01/18 09:39:05;;;;;;;12.50;8.43;;;-1.00;99.90;;;;;;5041806;28;20041;-77
2023/01/18 09:41:37;;;;;;;15.40;8.98;;;-0.90;99.90;;;;;;5043962;28;20028;-77
2023/01/18 09:44:20;;;;;;;16.63;8.35;;;-0.80;99.90;;;;;;5041054;28;20052;-77
2023/01/18 09:46:49;;;;;;;12.85;8.50;;;-0.80;99.90;;;;;;5037655;28;20049;-77
2023/01/18 09:49:25;;;;;;;14.70;8.55;;;-0.70;99.90;;;;;;5017090;28;20491;-77
2023/01/18 09:52:33;;;;;;;14.18;8.20;;;-0.60;99.90;;;;;;5037898;28;20052;-76
2023/01/18 09:55:15;;;;;;;17.75;15.93;;;-0.40;99.90;;;;;;5047452;28;20059;-77
2023/01/18 09:58:13;;;;;;;12.38;8.27;;;-0.20;99.90;;;;;;5050006;28;20429;-77
2023/01/18 10:00:42;;;;;;;17.40;15.13;;;0.00;99.90;;;;;;5006681;28;20563;-77
2023/01/18 10:03:31;;;;;;;15.63;14.02;;;0.00;99.90;;;;;;5021727;28;20407;-76
2023/01/18 10:06:07;;;;;;;15.05;13.55;;;0.10;99.90;;;;;;5041825;28;20041;-77
2023/01/18 10:08:49;;;;;;;14.80;13.10;;;0.30;99.90;;;;;;5050022;28;20454;-77
2023/01/18 10:11:30;;;;;;;15.93;12.18;;;0.30;99.90;;;;;;5031550;28;20033;-77
2023/01/18 10:14:22;;;;;;;13.85;11.82;;;0.50;99.90;;;;;;5035540;28;20112;-76
2023/01/18 10:16:58;;;;;;;14.23;7.63;;;0.60;99.90;;;;;;5037362;28;20041;-76
2023/01/18 10:19:29;;;;;;;14.07;12.52;;;0.60;99.90;;;;;;5033400;28;20044;-77
2023/01/18 10:22:11;;;;;;;10.20;5.90;;;0.70;99.90;;;;;;5016022;28;20037;-78
2023/01/18 10:25:01;;;;;;;14.25;11.80;;;0.80;99.90;;;;;;5041719;28;20048;-77
2023/01/18 10:27:50;;;;;;;12.80;11.48;;;0.90;99.90;;;;;;5049827;28;20081;-77
2023/01/18 10:30:44;;;;;;;12.10;10.60;;;1.00;99.90;;;;;;5050008;28;20091;-77
2023/01/18 10:33:37;;;;;;;12.75;10.98;;;1.00;99.90;;;;;;5040526;28;20040;-77
2023/01/18 10:36:29;;;;;;;11.50;10.40;;;1.10;99.90;;;;;;5051057;28;20037;-77
2023/01/18 10:38:55;;;;;;;16.35;11.63;;;1.10;99.90;;;;;;5053751;28;20041;-77
2023/01/18 10:41:30;;;;;;;11.50;10.30;;;1.10;99.90;;;;;;5036143;28;20033;-77
2023/01/18 10:43:55;;;;;;;12.70;10.80;;;1.20;99.90;;;;;;5045713;28;20037;-77
2023/01/18 10:46:21;;;;;;;12.02;10.82;;;1.20;99.90;;;;;;5054318;28;20041;-77
2023/01/18 10:48:50;;;;;;;12.25;10.27;;;1.30;99.90;;;;;;5054284;28;20048;-77
2023/01/18 10:51:43;;;;;;;11.35;10.18;;;1.30;99.90;;;;;;5037021;28;20051;-77
2023/01/18 10:54:18;;;;;;;;;;;1.40;99.90;;;;;;5023688;28;20048;-78
2023/01/18 10:56:43;;;;;;;14.05;10.40;;;1.50;99.90;;;;;;5045668;28;20011;-78
2023/01/18 10:59:29;;;;;;;12.85;10.40;;;1.50;99.90;;;;;;5055030;28;20073;-77
2023/01/18 11:01:56;;;;;;;11.93;9.85;;;1.60;99.90;;;;;;5045190;28;20438;-77
2023/01/18 11:04:26;;;;;;;13.98;10.35;;;1.70;99.90;;;;;;5044023;28;20037;-78
2023/01/18 11:06:58;;;;;;;11.15;9.98;;;1.80;99.90;;;;;;5051665;28;20514;-77
2023/01/18 11:09:50;;;;;;;12.40;10.43;;;1.80;99.90;;;;;;5041033;28;20414;-78
2023/01/18 11:12:32;;;;;;;11.18;9.73;;;1.90;99.90;;;;;;5032778;28;20052;-78
2023/01/18 11:15:15;;;;;;;12.43;9.82;;;2.00;99.90;;;;;;5055573;28;20052;-77
2023/01/18 11:17:59;;;;;;;10.25;6.13;;;2.10;99.90;;;;;;5037654;28;20041;-77
2023/01/18 11:20:47;;;;;;;11.52;9.93;;;2.10;99.90;;;;;;5053522;28;20076;-78
2023/01/18 11:23:16;;;;;;;11.48;10.18;;;2.20;99.90;;;;;;5046845;28;20044;-78
2023/01/18 11:25:59;;;;;;;11.07;9.98;;;2.20;99.90;;;;;;5029803;28;20082;-78
2023/01/18 11:28:35;;;;;;;10.75;9.55;;;2.40;99.90;;;;;;5038165;28;20110;-78
2023/01/18 11:31:11;;;;;;;11.85;9.30;;;2.60;99.90;;;;;;5030997;28;20037;-78
2023/01/18 11:33:48;;;;;;;11.35;9.82;;;2.90;99.90;;;;;;5030998;28;20037;-77
2023/01/18 11:36:14;;;;;;;10.05;9.05;;;3.30;99.90;;;;;;5047183;28;20037;-79
2023/01/18 11:38:40;;;;;;;11.50;9.25;;;3.60;99.90;;;;;;5034037;28;20033;-79
2023/01/18 11:41:26;;;;;;;10.40;8.10;;;3.90;99.90;;;;;;5047709;28;20044;-78
2023/01/18 11:44:16;;;;;;;12.98;9.43;;;4.00;99.90;;;;;;5056486;28;20056;-78
2023/01/18 11:46:46;;;;;;;9.85;8.85;;;4.20;99.90;;;;;;5048365;28;20375;-78
2023/01/18 11:49:41;;;;;;;9.75;7.93;;;4.30;99.90;;;;;;5048856;28;20043;-78
2023/01/18 11:52:22;;;;;;;10.02;8.18;;;4.60;99.90;;;;;;5055031;28;20049;-78
2023/01/18 11:54:52;;;;;;;11.35;8.57;;;5.10;99.90;;;;;;5056268;28;20047;-78
2023/01/18 11:57:18;;;;;;;10.07;7.88;;;5.30;99.90;;;;;;5033298;28;20041;-78
2023/01/18 11:59:45;;;;;;;9.48;8.07;;;5.50;99.90;;;;;;5051229;28;20045;-78
2023/01/18 12:02:55;;;;;;;9.45;7.53;;;5.80;99.90;;;;;;5039555;28;20033;-78
2023/01/18 12:05:55;;;;;;;11.40;7.55;;;6.00;99.90;;;;;;5054360;28;20041;-78
2023/01/18 12:08:52;;;;;;;7.38;6.60;;;6.30;99.90;;;;;;4944176;28;20505;-78
2023/01/18 12:11:32;;;;;;;8.80;7.15;;;6.50;99.90;;;;;;5038415;28;20049;-78
2023/01/18 12:14:21;;;;;;;9.82;6.97;;;6.70;99.90;;;;;;5038903;28;20457;-78
2023/01/18 12:17:15;;;;;;;7.50;6.70;;;6.80;99.90;;;;;;5027147;28;20037;-78
2023/01/18 12:20:21;;;;;;;8.93;6.35;;;6.80;99.90;;;;;;5046813;28;20041;-78
2023/01/18 12:22:53;;;;;;;8.77;7.15;;;6.70;99.90;;;;;;5054851;28;20048;-78
2023/01/18 12:25:34;;;;;;;9.27;6.78;;;6.60;99.90;;;;;;5038239;28;20091;-78
2023/01/18 12:28:06;;;;;;;8.65;6.30;;;6.60;99.90;;;;;;5042742;28;20033;-78
2023/01/18 12:31:01;;;;;;;9.05;6.13;;;6.50;99.90;;;;;;5042005;28;20037;-78
2023/01/18 12:33:44;;;;;;;7.35;6.55;;;6.10;99.90;;;;;;4996343;28;20099;-78
2023/01/18 12:36:13;;;;;;;;;;;5.90;99.90;;;;;;5036407;28;20080;-78
2023/01/18 12:39:03;;;;;;;7.70;6.60;;;5.70;99.90;;;;;;5006609;28;19921;-78
2023/01/18 12:42:04;;;;;;;8.52;6.82;;;5.80;99.90;;;;;;5043217;28;20114;-78
2023/01/18 12:45:05;;;;;;;7.80;6.22;;;5.90;99.90;;;;;;5039675;28;20052;-79
2023/01/18 12:47:39;;;;;;;9.32;6.30;;;6.10;99.90;;;;;;5040057;28;20044;-78
2023/01/18 12:50:17;;;;;;;10.05;6.72;;;6.10;99.90;;;;;;5045277;28;20071;-78
2023/01/18 12:52:48;;;;;;;9.20;6.60;;;6.10;99.90;;;;;;5051890;28;20041;-78
2023/01/18 12:55:19;;;;;;;7.80;6.28;;;6.00;99.90;;;;;;5043474;28;20041;-78
2023/01/18 12:57:57;;;;;;;7.50;6.47;;;6.00;99.90;;;;;;5040882;28;20037;-79
2023/01/18 13:00:30;;;;;;;7.38;6.07;;;5.80;99.90;;;;;;5024420;28;20037;-78
2023/01/18 13:02:56;;;;;;;7.68;6.07;;;5.70;99.90;;;;;;5039113;28;20143;-80
2023/01/18 13:05:46;;;;;;;7.68;5.88;;;5.60;99.90;;;;;;5041122;28;20110;-79
2023/01/18 13:08:18;;;;;;;7.32;6.28;;;5.60;99.90;;;;;;5052314;28;20068;-80
2023/01/18 13:10:44;;;;;;;8.20;6.72;;;5.40;99.90;;;;;;5047552;28;20041;-79
2023/01/18 13:13:21;;;;;;;9.15;5.85;;;5.40;99.90;;;;;;5041298;28;20561;-81
2023/01/18 13:16:04;;;;;;;8.25;6.28;;;5.30;99.90;;;;;;5043799;28;20033;-81
2023/01/18 13:18:35;;;;;;;;;;;5.30;99.90;;;;;;5025822;28;20033;-79
2023/01/18 13:21:19;;;;;;;8.88;6.22;;;5.30;99.90;;;;;;5036774;28;19972;-78
2023/01/18 13:24:03;;;;;;;8.15;5.47;;;5.20;99.90;;;;;;5016626;28;20091;-78
2023/01/18 13:26:40;;;;;;;9.70;6.25;;;5.20;99.90;;;;;;5037649;28;20040;-78
2023/01/18 13:29:21;;;;;;;9.57;6.57;;;5.00;99.90;;;;;;5042829;28;20079;-79
2023/01/18 13:31:48;;;;;;;7.75;6.18;;;5.00;99.90;;;;;;5031996;28;20410;-78
2023/01/18 13:34:35;;;;;;;8.88;6.30;;;4.90;99.90;;;;;;5035266;28;20223;-79
2023/01/18 13:37:05;;;;;;;7.63;6.10;;;4.70;99.90;;;;;;5032713;28;20044;-78